Tiempo atmosférico en la estación meteorológica de Monreal/Elo, Navarra (585 m.)



Fecha
DESCASC
Temp. máxima en grados centígrados (hora)
DESCASC
Temp. mínima en grados centígrados (hora)
DESCASC
Temp. media en grados centígrados
DESCASC
Racha de viento máxima en m/sg (hora)
DESCASC
Velocidad máxima media en intervalos de 10 minutos(hora)
DESCASC
Precipitaciones diarias en mm
DESCASC
Precipitaciones de 00:00 a 06:00 en mm
DESCASC
Precipitaciones de 06:00 a 12:00 en mm
DESCASC
Precipitaciones de 12:00 a 18:00 en mm
DESCASC
Precipitaciones de 18:00 a 24:00 en mm
DESCASC
31-03-2020 7.2 (23:40) -0.8 (06:10) 3.2 -- (--) -- (--) 11.4 0 2 8.4 1
30-03-2020 5 (17:20) -1.5 (07:50) 1.8 15.83 (04:20) 11.39 (04:10) 0 0 0 0 0
29-03-2020 11.9 (14:10) 3.6 (00:00) 7.7 15.83 (16:40) 11.67 (20:10) 0 0 0 0 0
28-03-2020 16.3 (15:30) -0.5 (-00:0) 7.9 8.89 (16:50) 6.67 (18:10) 0 0 0 0 0
27-03-2020 13.8 (15:40) -1.9 (-00:0) 6 9.17 (18:50) 5.56 (18:50) 0 0 0 0 0
26-03-2020 9.8 (15:00) 1.4 (00:00) 5.6 18.33 (09:30) 12.5 (10:40) 0 0 0 0 0
25-03-2020 12.9 (16:30) 2.8 (00:00) 7.8 9.17 (19:40) 6.39 (19:50) 0 0 0 0 0
24-03-2020 16.5 (15:50) 4.6 (00:00) 10.5 7.5 (20:10) 5 (20:10) 0 0 0 0 0
23-03-2020 16.1 (15:50) 7.5 (00:00) 11.8 8.61 (14:40) 6.67 (18:20) 5.6 4.8 0 0.2 0.6
22-03-2020 16.9 (14:30) 3.5 (04:10) 10.2 8.61 (15:20) 5.83 (15:00) 0 0 0 0 0
21-03-2020 15.7 (15:40) 4.3 (00:00) 10 11.11 (04:10) 6.94 (04:10) 0 0 0 0 0
20-03-2020 14.9 (15:10) 3.7 (00:00) 9.3 14.17 (13:50) 10.28 (13:40) 0 0 0 0 0
19-03-2020 16.6 (15:00) 7.2 (00:00) 11.9 10.28 (17:20) 7.78 (17:30) 0 0 0 0 0
18-03-2020 16.8 (15:20) 5.3 (00:00) 11 4.72 (15:40) 3.33 (17:40) 0 0 0 0 0
17-03-2020 11.4 (16:30) 6.4 (00:00) 8.9 8.06 (00:30) 5.83 (00:40) 0.2 0.2 0 0 0
16-03-2020 7.5 (22:30) 4.3 (00:00) 5.9 11.11 (00:20) 7.78 (00:20) 24.6 15.4 8.6 0.6 0
15-03-2020 17.7 (14:10) 1.9 (00:00) 9.8 13.33 (13:50) 9.72 (13:50) 22 0 0 0 22
14-03-2020 13 (17:10) 2.2 (00:00) 7.6 11.39 (06:00) 9.17 (06:00) 0 0 0 0 0
13-03-2020 9.5 (13:30) 4.1 (23:59) 6.8 12.5 (06:30) 9.17 (07:30) 0 0 0 0 0
12-03-2020 15.7 (14:40) 8 (00:00) 11.8 13.33 (22:10) 9.72 (22:10) 2 0 0 0 2
11-03-2020 21.3 (16:20) 4.6 (00:00) 12.9 4.72 (13:50) 3.61 (13:50) 0 0 0 0 0
10-03-2020 17.4 (16:50) 4.9 (00:00) 11.1 9.17 (17:00) 6.67 (17:50) 0 0 0 0 0
09-03-2020 9.5 (12:30) 5.5 (00:00) 7.5 17.5 (14:30) 11.67 (11:50) 2.4 0 0.6 1.8 0
08-03-2020 12.8 (16:30) -0.5 (-00:0) 6.2 11.39 (23:50) 6.94 (20:10) 0.2 0 0 0 0.2
07-03-2020 8.9 (14:10) 2.5 (00:00) 5.7 15.83 (07:30) 10.83 (10:50) 3.2 2.6 0.2 0.2 0.2
06-03-2020 6 (06:20) -0.2 (00:00) 2.9 22.78 (15:10) 15 (15:10) 20.6 0 3.6 11.6 5.4
05-03-2020 12 (11:20) 4.4 (00:00) 8.2 20.28 (19:00) 15 (19:00) 6 0 2.4 3.6 0
04-03-2020 14.9 (12:40) 5.4 (00:00) 10.1 7.22 (00:30) 5.83 (00:30) 4.6 1.8 2.8 0 0
03-03-2020 12.2 (16:10) 1.6 (00:00) 6.9 30.56 (16:20) 21.39 (16:20) 6.6 0 6.4 0.2 0
02-03-2020 12.4 (05:20) 2.2 (00:00) 7.3 29.72 (05:50) 16.67 (08:50) 9.8 6.6 0.4 1.4 1.4

Gráficas

Temp. máximas Temp. mínimas Temp. medias Precipitaciones Rachas de viento máximas Velocidades máximas media en intervalos de 10 minutos

Datos horarios

Fecha y hora oficial Temperatura (ºC) Velocidad del viento (km/h) Dirección del viento Racha (km/h) Dirección de racha Precipitación (mm) Presión (hPa) Tendencia (hPa) Humedad (%)
2020-03-31 23:00:00 6.7 6 Sudeste 13 Sudeste 0 -- -- 94
2020-03-31 22:00:00 5.8 6 Sudeste 12 Sudeste 0.2 -- -- 99
2020-03-31 21:00:00 5.1 7 Noroeste 9 Noroeste 0 -- -- 98
2020-03-31 20:00:00 5.5 3 Noroeste 5 Noroeste 0.4 -- -- 98
2020-03-31 19:00:00 5.3 4 Noroeste 7 Noroeste 0.4 -- -- 97
2020-03-31 18:00:00 5.3 3 Noroeste 7 Noroeste 1.2 -- -- 97
2020-03-31 17:00:00 4.8 6 Noroeste 11 Noroeste 0.6 -- -- 97
2020-03-31 16:00:00 5.1 6 Noroeste 9 Noroeste 0.4 -- -- 94
2020-03-31 15:00:00 4.9 2 Sudeste 5 Sudeste 1.4 -- -- 93
2020-03-31 14:00:00 3.7 0 Calma 8 Noroeste 2.4 -- -- 94
2020-03-31 13:00:00 2.3 5 Noroeste 8 Noroeste 2.4 -- -- 93
2020-03-31 12:00:00 1.7 0 Calma 4 Noroeste 1.8 -- -- 94
2020-03-31 11:00:00 0.6 2 Noroeste 5 Noroeste 0.2 -- -- 97
2020-03-31 10:00:00 0.3 0 Calma -- -- 0 -- -- 98
2020-03-31 09:00:00 -0.2 -- -- -- -- 0 -- -- 98
2020-03-31 08:00:00 -0.6 -- -- -- -- -- -- -- 98
2020-03-31 07:00:00 -- -- -- -- -- -- -- -- --
2020-03-31 06:00:00 -- -- -- -- -- -- -- -- --
2020-03-31 05:00:00 -- -- -- -- -- -- -- -- --
2020-03-31 04:00:00 -0.4 0 Calma 3 Norte 0 -- -- 92
2020-03-31 03:00:00 0.2 2 Norte 6 Noroeste 0 -- -- 85
2020-03-31 02:00:00 0 3 Noroeste 12 Norte 0 -- -- 84
2020-03-31 01:00:00 -0.3 11 Noroeste 14 Noroeste 0 -- -- 86
2020-03-31 00:00:00 0.4 10 Noroeste 19 Norte 0 -- -- 80
2020-03-30 23:00:00 0.4 13 Noroeste 19 Noroeste 0 -- -- 81
2020-03-30 22:00:00 0.7 17 Noroeste 22 Norte 0 -- -- 80
2020-03-30 21:00:00 1.5 17 Noroeste 32 Noroeste 0 -- -- 73
2020-03-30 20:00:00 2.8 19 Norte 31 Norte 0 -- -- 64
2020-03-30 19:00:00 3.9 21 Norte 36 Noroeste 0 -- -- 60
2020-03-30 18:00:00 3.7 25 Norte 38 Norte 0 -- -- 59
2020-03-30 17:00:00 4.2 26 Noroeste 39 Noroeste 0 -- -- 56
2020-03-30 16:00:00 3.7 19 Noroeste 45 Noroeste 0 -- -- 62
2020-03-30 15:00:00 3.6 27 Noroeste 39 Noroeste 0 -- -- 61
2020-03-30 14:00:00 3.5 27 Noroeste 40 Noroeste 0 -- -- 62
2020-03-30 13:00:00 3.5 28 Noroeste 53 Noroeste 0 -- -- 61
2020-03-30 12:00:00 3.5 24 Norte 42 Noroeste 0 -- -- 53
2020-03-30 11:00:00 2 33 Norte 46 Noroeste 0 -- -- 57
2020-03-30 10:00:00 1.4 22 Noroeste 38 Noroeste 0 -- -- 71
2020-03-30 09:00:00 -0.5 28 Noroeste 37 Noroeste 0 -- -- 83
2020-03-30 08:00:00 -1.5 20 Noroeste 44 Noroeste 0 -- -- 85
2020-03-30 07:00:00 0.4 24 Noroeste 44 Norte 0 -- -- 74
2020-03-30 06:00:00 0.9 19 Noroeste 52 Noroeste 0 -- -- 77
2020-03-30 05:00:00 1.2 31 Noroeste 57 Norte 0 -- -- 80
2020-03-30 04:00:00 1.2 38 Noroeste 55 Noroeste 0 -- -- 85
2020-03-30 03:00:00 1.5 33 Noroeste 44 Noroeste 0 -- -- 89
2020-03-30 02:00:00 2.2 36 Noroeste 45 Noroeste 0 -- -- 89
2020-03-30 01:00:00 3.8 25 Noroeste 41 Oeste 0 -- -- 86
2020-03-30 00:00:00 4.9 30 Noroeste 50 Noroeste 0 -- -- 90
2020-03-29 23:00:00 5.5 29 Noroeste 50 Noroeste 0 -- -- 91
2020-03-29 22:00:00 6.2 37 Noroeste 48 Noroeste 0 -- -- 90
2020-03-29 21:00:00 6.5 36 Noroeste 56 Noroeste 0 -- -- 87
2020-03-29 20:00:00 7.3 37 Noroeste 53 Noroeste 0 -- -- 81
2020-03-29 19:00:00 8.5 37 Noroeste 50 Noroeste 0 -- -- 72
2020-03-29 18:00:00 9.2 30 Noroeste 45 Norte 0 -- -- 76
2020-03-29 17:00:00 9.3 35 Noroeste 57 Noroeste 0 -- -- 71
2020-03-29 16:00:00 11.6 32 Noroeste 51 Noroeste 0 -- -- 55
2020-03-29 15:00:00 11 29 Noroeste 52 Noroeste 0 -- -- 59
2020-03-29 14:00:00 11.3 28 Noroeste 48 Noroeste 0 -- -- 57
2020-03-29 13:00:00 11.5 26 Noroeste 41 Noroeste 0 -- -- 58
2020-03-29 12:00:00 10 26 Noroeste 42 Oeste 0 -- -- 64
2020-03-29 11:00:00 7.7 28 Noroeste 42 Noroeste 0 -- -- 73
2020-03-29 10:00:00 6 27 Noroeste 35 Noroeste 0 -- -- 79
2020-03-29 09:00:00 4.6 22 Noroeste 31 Noroeste 0 -- -- 83
2020-03-29 08:00:00 3.8 22 Noroeste 34 Noroeste 0 -- -- 85
2020-03-29 07:00:00 3.9 23 Noroeste 36 Noroeste 0 -- -- 82
2020-03-29 06:00:00 3.7 24 Noroeste 31 Noroeste 0 -- -- 81
2020-03-29 05:00:00 4.2 23 Noroeste 31 Noroeste 0 -- -- 75
2020-03-29 03:00:00 5 20 Noroeste 26 Noroeste 0 -- -- 74
2020-03-29 01:00:00 5.3 17 Noroeste 26 Noroeste 0 -- -- 75
2020-03-29 00:00:00 5.8 20 Noroeste 27 Noroeste 0 -- -- 74
2020-03-28 23:00:00 6.2 18 Noroeste 27 Noroeste 0 -- -- 75
2020-03-28 22:00:00 7.6 23 Noroeste 30 Noroeste 0 -- -- 73
2020-03-28 21:00:00 8.9 17 Noroeste 24 Noroeste 0 -- -- 70
2020-03-28 20:00:00 10.5 16 Noroeste 28 Norte 0 -- -- 63
2020-03-28 19:00:00 12.6 19 Norte 32 Noroeste 0 -- -- 57
2020-03-28 18:00:00 14.6 21 Noroeste 28 Noroeste 0 -- -- 50
2020-03-28 17:00:00 15.7 16 Noroeste 32 Noroeste 0 -- -- 43
2020-03-28 16:00:00 15.8 15 Noroeste 27 Oeste 0 -- -- 43
2020-03-28 15:00:00 15.9 17 Oeste 25 Oeste 0 -- -- 45
2020-03-28 14:00:00 14.8 11 Noroeste 24 Noroeste 0 -- -- 45
2020-03-28 13:00:00 13.6 10 Noroeste 18 Noroeste 0 -- -- 53
2020-03-28 12:00:00 11.5 14 Noroeste 20 Noroeste 0 -- -- 54
2020-03-28 11:00:00 9.3 11 Noroeste 15 Noroeste 0 -- -- 67
2020-03-28 10:00:00 6.9 6 Noroeste 11 Noroeste 0 -- -- 77
2020-03-28 09:00:00 5.7 0 Calma 5 Este 0 -- -- 79
2020-03-28 08:00:00 1 5 Sudeste 8 Sudeste 0 -- -- 92
2020-03-28 07:00:00 0.2 3 Sudeste 9 Sudeste 0 -- -- 90
2020-03-28 06:00:00 0.7 5 Sudeste 10 Este 0 -- -- 89
2020-03-28 05:00:00 0.5 8 Sudeste 12 Sudeste 0 -- -- 92
2020-03-28 04:00:00 0.2 10 Sudeste 12 Sudeste 0 -- -- 93
2020-03-28 03:00:00 0.5 8 Sudeste 10 Sudeste 0 -- -- 91
2020-03-28 02:00:00 1.5 5 Sudeste 8 Sudeste 0 -- -- 90
2020-03-28 01:00:00 2.4 4 Este 5 Este 0 -- -- 88
2020-03-28 00:00:00 3.6 3 Noroeste 13 Noroeste 0 -- -- 84
2020-03-27 23:00:00 4 6 Noroeste 14 Noroeste 0 -- -- 84
2020-03-27 22:00:00 5.1 10 Noroeste 21 Noroeste 0 -- -- 78
2020-03-27 21:00:00 7 11 Noroeste 21 Noroeste 0 -- -- 63
2020-03-27 20:00:00 7.9 15 Noroeste 26 Norte 0 -- -- 60
2020-03-27 19:00:00 9.6 19 Noroeste 33 Noroeste 0 -- -- 54
2020-03-27 18:00:00 12.3 15 Oeste 24 Oeste 0 -- -- 47
2020-03-27 17:00:00 12.8 13 Noroeste 21 Oeste 0 -- -- 41
2020-03-27 16:00:00 13.2 9 Oeste 21 Oeste 0 -- -- 44
2020-03-27 15:00:00 12.6 10 Oeste 21 Oeste 0 -- -- 46
2020-03-27 14:00:00 11.6 12 Oeste 22 Noroeste 0 -- -- 50
2020-03-27 13:00:00 10.4 14 Noroeste 22 Noroeste 0 -- -- 52
2020-03-27 12:00:00 9.3 14 Oeste 21 Oeste 0 -- -- 59
2020-03-27 11:00:00 7.7 11 Noroeste 16 Noroeste 0 -- -- 63
2020-03-27 10:00:00 5.6 5 Oeste 11 Noroeste 0 -- -- 70
2020-03-27 09:00:00 2.8 4 Noroeste 6 Noroeste 0 -- -- 79
2020-03-27 08:00:00 -0.4 3 Este 7 Sudeste 0 -- -- 90
2020-03-27 07:00:00 -1.4 3 Este 9 Sudeste 0 -- -- 91
2020-03-27 06:00:00 -1.3 7 Sudeste 9 Sudeste 0 -- -- 92
2020-03-27 05:00:00 -1 7 Sudeste 8 Este 0 -- -- 92
2020-03-27 04:00:00 -0.3 4 Sudeste 8 Sudeste 0 -- -- 88
2020-03-27 03:00:00 1.7 5 Noroeste 10 Norte 0 -- -- 83
2020-03-27 02:00:00 2.1 4 Noroeste 6 Noroeste 0 -- -- 82
2020-03-27 01:00:00 2.4 0 Calma 7 Noroeste 0 -- -- 78
2020-03-27 00:00:00 2.2 3 Noroeste 10 Noroeste 0 -- -- 77
2020-03-26 23:00:00 2 8 Noroeste 21 Noroeste 0 -- -- 72
2020-03-26 22:00:00 2.4 17 Noroeste 27 Noroeste 0 -- -- 69
2020-03-26 21:00:00 2.9 20 Noroeste 32 Noroeste 0 -- -- 66
2020-03-26 20:00:00 3.8 20 Noroeste 37 Noroeste 0 -- -- 58
2020-03-26 19:00:00 5.5 29 Noroeste 44 Noroeste 0 -- -- 52
2020-03-26 18:00:00 7.1 34 Noroeste 50 Noroeste 0 -- -- 49
2020-03-26 17:00:00 8.4 31 Noroeste 48 Noroeste 0 -- -- 45
2020-03-26 16:00:00 8.8 34 Noroeste 51 Noroeste 0 -- -- 42
2020-03-26 15:00:00 9.8 25 Noroeste 50 Noroeste 0 -- -- 47
2020-03-26 14:00:00 8.9 34 Noroeste 52 Noroeste 0 -- -- 39
2020-03-26 13:00:00 8.2 37 Noroeste 59 Noroeste 0 -- -- 47
2020-03-26 12:00:00 7.6 33 Noroeste 59 Noroeste 0 -- -- 49
2020-03-26 11:00:00 7.1 41 Norte 66 Noroeste 0 -- -- 55
2020-03-26 10:00:00 6.4 36 Noroeste 66 Noroeste 0 -- -- 63
2020-03-26 09:00:00 6.1 37 Noroeste 62 Norte 0 -- -- 67
2020-03-26 08:00:00 5.9 35 Noroeste 60 Noroeste 0 -- -- 69
2020-03-26 07:00:00 5.8 36 Noroeste 47 Noroeste 0 -- -- 78
2020-03-26 06:00:00 5.1 23 Noroeste 37 Noroeste 0 -- -- 90
2020-03-26 05:00:00 4.4 17 Noroeste 34 Noroeste 0 -- -- 95
2020-03-26 04:00:00 4.6 23 Noroeste 35 Noroeste 0 -- -- 91
2020-03-26 03:00:00 4.6 13 Norte 23 Noroeste 0 -- -- 84
2020-03-26 02:00:00 4.4 17 Noroeste 24 Noroeste 0 -- -- 82
2020-03-26 01:00:00 3.4 14 Noroeste 23 Noroeste 0 -- -- 84
2020-03-26 00:00:00 3 19 Noroeste 26 Noroeste 0 -- -- 83
2020-03-25 23:00:00 3.8 13 Noroeste 19 Noroeste 0 -- -- 80
2020-03-25 22:00:00 4.5 12 Noroeste 27 Noroeste 0 -- -- 80
2020-03-25 21:00:00 6 9 Noroeste 18 Noroeste 0 -- -- 78
2020-03-25 20:00:00 8 17 Noroeste 33 Oeste 0 -- -- 82
2020-03-25 19:00:00 9.4 4 Oeste 30 Sudoeste 0 -- -- 75
2020-03-25 18:00:00 10.4 22 Sudoeste 31 Sudoeste 0 -- -- 72
2020-03-25 17:00:00 12.1 17 Sudoeste 32 Sur 0 -- -- 66
2020-03-25 16:00:00 12.1 12 Oeste 31 Oeste 0 -- -- 69
2020-03-25 15:00:00 11.6 14 Sudoeste 24 Sudoeste 0 -- -- 68
2020-03-25 14:00:00 12.8 10 Sudoeste 28 Sudoeste 0 -- -- 65
2020-03-25 13:00:00 10.8 17 Sudoeste 25 Sudoeste 0 -- -- 74
2020-03-25 12:00:00 8.5 12 Sudoeste 28 Sur 0 -- -- 81
2020-03-25 11:00:00 8.3 18 Sudoeste 27 Sudoeste 0 -- -- 83
2020-03-25 10:00:00 7.8 14 Sur 23 Sur 0 -- -- 84
2020-03-25 09:00:00 7.3 13 Sudoeste 21 Sudoeste 0 -- -- 86
2020-03-25 08:00:00 6.7 12 Sur 18 Sur 0 -- -- 91
2020-03-25 07:00:00 5.9 3 Norte 8 Noroeste 0 -- -- 97
2020-03-25 06:00:00 5.9 4 Noroeste 6 Noroeste 0 -- -- 95
2020-03-25 05:00:00 5.7 2 Noroeste 4 Norte 0 -- -- 94
2020-03-25 04:00:00 5.1 2 Norte 7 Sur 0 -- -- 95
2020-03-25 03:00:00 6.2 2 Sudeste 9 Sudeste 0 -- -- 92
2020-03-25 02:00:00 5.6 7 Sudeste 10 Sudeste 0 -- -- 92
2020-03-25 01:00:00 4.4 8 Sudeste 12 Sudeste 0 -- -- 91
2020-03-25 00:00:00 4.6 9 Sudeste 11 Sudeste 0 -- -- 91
2020-03-24 23:00:00 5.8 8 Sudeste 10 Este 0 -- -- 86
2020-03-24 22:00:00 8.8 4 Norte 8 Noroeste 0 -- -- 72
2020-03-24 21:00:00 9.7 6 Noroeste 27 Noroeste 0 -- -- 74
2020-03-24 20:00:00 11 14 Noroeste 22 Noroeste 0 -- -- 76
2020-03-24 19:00:00 12.8 18 Noroeste 23 Noroeste 0 -- -- 74
2020-03-24 18:00:00 14.4 14 Noroeste 21 Noroeste 0 -- -- 68
2020-03-24 17:00:00 15.6 10 Oeste 19 Sudoeste 0 -- -- 62
2020-03-24 16:00:00 15.5 11 Oeste 19 Oeste 0 -- -- 64
2020-03-24 15:00:00 15.6 5 Oeste 21 Oeste 0 -- -- 60
2020-03-24 14:00:00 14.4 14 Noroeste 21 Noroeste 0 -- -- 69
2020-03-24 13:00:00 12.6 17 Noroeste 24 Noroeste 0 -- -- 77
2020-03-24 12:00:00 12.8 4 Sudeste 10 Sudeste 0 -- -- 74
2020-03-24 11:00:00 10 3 Noroeste 8 Noroeste 0 -- -- 87
2020-03-24 10:00:00 10.3 3 Noroeste 5 Noroeste 0 -- -- 86
2020-03-24 09:00:00 9 4 Sudeste 9 Sudeste 0 -- -- 93
2020-03-24 08:00:00 6.8 8 Sudeste 10 Sudeste 0 -- -- 96
2020-03-24 07:00:00 7.2 5 Este 6 Este 0 -- -- 95
2020-03-24 06:00:00 7.8 4 Este 8 Sudeste 0 -- -- 94
2020-03-24 05:00:00 8.3 3 Este 9 Sur 0 -- -- 93
2020-03-24 04:00:00 8.8 0 Calma 9 Norte 0 -- -- 91
2020-03-24 03:00:00 8.1 5 Sudeste 7 Sudeste 0 -- -- 94
2020-03-24 02:00:00 7.6 5 Sudeste 8 Este 0 -- -- 95
2020-03-24 01:00:00 7.1 6 Sudeste 8 Sudeste 0 -- -- 95
2020-03-24 00:00:00 8.3 5 Sudeste 15 Sudeste 0 -- -- 93
2020-03-23 23:00:00 8.8 9 Sudeste 15 Sudeste 0 -- -- 92
2020-03-23 22:00:00 9 7 Sudeste 13 Sudeste 0 -- -- 90
2020-03-23 21:00:00 8.9 7 Sudeste 10 Sudeste 0.2 -- -- 92
2020-03-23 20:00:00 9.1 5 Sur 12 Este 0 -- -- 89
2020-03-23 19:00:00 9.4 12 Sudeste 30 Sudeste 0.4 -- -- 88
2020-03-23 18:00:00 10.7 20 Sudeste 26 Sudeste 0.2 -- -- 83
2020-03-23 17:00:00 11.3 11 Sudeste 27 Sudeste 0 -- -- 78
2020-03-23 16:00:00 14.7 3 Sudoeste 15 Sur 0 -- -- 62
2020-03-23 15:00:00 13.3 15 Sudeste 31 Sudeste 0 -- -- 66
2020-03-23 14:00:00 14.8 10 Sur 19 Sudeste 0 -- -- 63
2020-03-23 13:00:00 12.8 10 Nordeste 21 Norte 0 -- -- 73
2020-03-23 12:00:00 12.7 10 Norte 14 Norte 0 -- -- 76
2020-03-23 11:00:00 12.1 4 Noroeste 8 Noroeste 0 -- -- 82
2020-03-23 10:00:00 9.9 0 Calma 4 Sudoeste 0 -- -- 91
2020-03-23 09:00:00 8.7 0 Calma -- -- 0 -- -- 97
2020-03-23 08:00:00 7.7 0 Calma 4 Sudeste 0 -- -- 99
2020-03-23 07:00:00 7.6 0 Calma 3 Este 0 -- -- 98
2020-03-23 06:00:00 7.7 0 Calma 3 Oeste 0 -- -- 98
2020-03-23 05:00:00 7.8 2 Nordeste 4 Norte 0 -- -- 98
2020-03-23 04:00:00 7.8 0 Calma 7 Sur 0 -- -- 98
2020-03-23 03:00:00 8.1 4 Sur 12 Sur 0.8 -- -- 97
2020-03-23 02:00:00 8.2 10 Sudeste 22 Sudeste 1.6 -- -- 97
2020-03-23 01:00:00 8.5 16 Sudeste 21 Sudeste 2.4 -- -- 96
2020-03-23 00:00:00 9.3 4 Este 12 Noroeste 0 -- -- 90
2020-03-22 23:00:00 9.3 8 Noroeste 20 Noroeste 0 -- -- 87
2020-03-22 22:00:00 9.7 14 Noroeste 21 Noroeste 0 -- -- 85
2020-03-22 21:00:00 10.1 15 Noroeste 22 Noroeste 0 -- -- 84
2020-03-22 20:00:00 11 12 Noroeste 23 Oeste 0 -- -- 80
2020-03-22 19:00:00 12.9 18 Noroeste 24 Oeste 0 -- -- 67
2020-03-22 18:00:00 14 11 Sur 15 Sur 0 -- -- 61
2020-03-22 17:00:00 16.3 9 Sudoeste 23 Sur 0 -- -- 53
2020-03-22 16:00:00 15 15 Sur 31 Sudoeste 0 -- -- 60
2020-03-22 15:00:00 15.9 21 Sur 27 Sur 0 -- -- 60
2020-03-22 14:00:00 15.2 9 Oeste 21 Oeste 0 -- -- 59
2020-03-22 13:00:00 14.2 14 Noroeste 19 Noroeste 0 -- -- 59
2020-03-22 12:00:00 12.2 14 Noroeste 18 Noroeste 0 -- -- 65
2020-03-22 11:00:00 11.4 11 Noroeste 16 Noroeste 0 -- -- 71
2020-03-22 10:00:00 10.5 0 Calma 6 Este 0 -- -- 68
2020-03-22 09:00:00 8.8 0 Calma 5 Noroeste 0 -- -- 75
2020-03-22 08:00:00 5.1 3 Este 10 Sudeste 0 -- -- 89
2020-03-22 07:00:00 4.5 8 Sudeste 8 Sudeste 0 -- -- 89
2020-03-22 06:00:00 4.5 4 Oeste 14 Sudeste 0 -- -- 85
2020-03-22 05:00:00 3.6 9 Sudeste 14 Sudeste 0 -- -- 88
2020-03-22 04:00:00 3.8 7 Sudeste 12 Sudeste 0 -- -- 84
2020-03-22 03:00:00 5.4 7 Sudeste 12 Sudeste 0 -- -- 78
2020-03-22 02:00:00 4.8 7 Sudeste 12 Sudeste 0 -- -- 82
2020-03-22 01:00:00 5.1 8 Sudeste 10 Sudeste 0 -- -- 83
2020-03-22 00:00:00 5.8 8 Sudeste 13 Este 0 -- -- 82
2020-03-21 23:00:00 5.7 8 Sudeste 13 Sudeste 0 -- -- 85
2020-03-21 22:00:00 5.9 12 Sudeste 14 Sudeste 0 -- -- 86
2020-03-21 21:00:00 6.8 10 Sudeste 12 Sudeste 0 -- -- 83
2020-03-21 20:00:00 9.3 6 Sudeste 18 Sudeste 0 -- -- 70
2020-03-21 19:00:00 11.4 10 Sur 21 Sudeste 0 -- -- 58
2020-03-21 18:00:00 13.2 15 Sudeste 24 Sur 0 -- -- 52
2020-03-21 17:00:00 14.5 14 Sur 27 Sudeste 0 -- -- 52
2020-03-21 16:00:00 14.9 17 Sudeste 27 Sudeste 0 -- -- 51
2020-03-21 15:00:00 15.1 17 Sudeste 29 Sudeste 0 -- -- 50
2020-03-21 14:00:00 14.5 19 Sudeste 30 Sudeste 0 -- -- 53
2020-03-21 13:00:00 14.2 17 Sudeste 30 Sudeste 0 -- -- 55
2020-03-21 12:00:00 13.5 19 Sudeste 37 Sudeste 0 -- -- 56
2020-03-21 11:00:00 11.6 23 Sudeste 32 Sudeste 0 -- -- 62
2020-03-21 10:00:00 10 19 Sudeste 29 Sudeste 0 -- -- 71
2020-03-21 09:00:00 8.3 11 Sudeste 18 Sudeste 0 -- -- 79
2020-03-21 08:00:00 4.8 8 Sudeste 13 Sudeste 0 -- -- 90
2020-03-21 07:00:00 4.4 6 Sudeste 14 Sudeste 0 -- -- 90
2020-03-21 06:00:00 5.7 14 Sudeste 27 Sudeste 0 -- -- 85
2020-03-21 05:00:00 6.9 20 Sudeste 40 Sur 0 -- -- 83
2020-03-21 04:00:00 7.3 16 Sudeste 27 Sudeste 0 -- -- 84
2020-03-21 03:00:00 7.8 8 Sudeste 15 Este 0 -- -- 79
2020-03-21 02:00:00 7.1 6 Sudeste 17 Sudeste 0 -- -- 85
2020-03-21 01:00:00 7.7 5 Sur 9 Sudeste 0 -- -- 82
2020-03-21 00:00:00 7.8 10 Sudeste 16 Sudeste 0 -- -- 81
2020-03-20 23:00:00 7.2 7 Sudeste 15 Sudeste 0 -- -- 83
2020-03-20 22:00:00 8.7 10 Sur 19 Sudeste 0 -- -- 76
2020-03-20 21:00:00 8.6 13 Sudeste 27 Sudeste 0 -- -- 76
2020-03-20 20:00:00 10 21 Sudeste 30 Sudeste 0 -- -- 73
2020-03-20 19:00:00 11.2 20 Sudeste 37 Sudeste 0 -- -- 67
2020-03-20 18:00:00 12.7 25 Sudeste 37 Sur 0 -- -- 61
2020-03-20 17:00:00 13.4 24 Sur 40 Sudeste 0 -- -- 60
2020-03-20 16:00:00 14.4 28 Sur 44 Sur 0 -- -- 57
2020-03-20 15:00:00 14.6 28 Sur 46 Sudeste 0 -- -- 59
2020-03-20 14:00:00 14.1 36 Sudeste 51 Sudeste 0 -- -- 59
2020-03-20 13:00:00 12.8 33 Sur 43 Sudeste 0 -- -- 63
2020-03-20 12:00:00 12.5 31 Sur 49 Sudeste 0 -- -- 63
2020-03-20 11:00:00 11.4 29 Sur 41 Sudeste 0 -- -- 64
2020-03-20 10:00:00 9.9 21 Sudeste 28 Sudeste 0 -- -- 72
2020-03-20 09:00:00 8.1 13 Sudeste 19 Sur 0 -- -- 82
2020-03-20 08:00:00 5.5 7 Sudeste 10 Sudeste 0 -- -- 88
2020-03-20 07:00:00 4.6 4 Este 9 Sudeste 0 -- -- 88
2020-03-20 06:00:00 4.8 6 Sudeste 9 Sudeste 0 -- -- 88
2020-03-20 05:00:00 6.4 4 Sudeste 12 Este 0 -- -- 81
2020-03-20 04:00:00 6.4 8 Sur 17 Sur 0 -- -- 82
2020-03-20 03:00:00 7.6 12 Sudeste 22 Sudeste 0 -- -- 80
2020-03-20 02:00:00 7.4 12 Sudeste 17 Sudeste 0 -- -- 88
2020-03-20 01:00:00 8.7 14 Sudeste 20 Sudeste 0 -- -- 87
2020-03-20 00:00:00 8.5 15 Sudeste 17 Sudeste 0 -- -- 86
2020-03-19 23:00:00 7.7 11 Sudeste 17 Este 0 -- -- 83
2020-03-19 22:00:00 9.9 7 Sudeste 19 Sudeste 0 -- -- 71
2020-03-19 21:00:00 9.9 13 Sudeste 23 Sudeste 0 -- -- 76
2020-03-19 20:00:00 10.4 13 Sudeste 15 Sudeste 0 -- -- 72
2020-03-19 19:00:00 12.6 10 Sudeste 23 Sudeste 0 -- -- 60
2020-03-19 18:00:00 14.2 18 Sur 37 Sur 0 -- -- 60
2020-03-19 17:00:00 15.4 24 Sur 35 Sur 0 -- -- 62
2020-03-19 16:00:00 16.4 22 Sur 32 Sur 0 -- -- 61
2020-03-19 15:00:00 16.6 17 Sur 30 Sur 0 -- -- 61
2020-03-19 14:00:00 16.3 21 Sur 33 Sur 0 -- -- 58
2020-03-19 13:00:00 16 19 Sur 30 Sur 0 -- -- 59
2020-03-19 12:00:00 15.9 17 Sur 24 Sur 0 -- -- 60
2020-03-19 11:00:00 14.9 16 Sur 25 Sur 0 -- -- 66
2020-03-19 10:00:00 13.4 5 Sudeste 9 Este 0 -- -- 77
2020-03-19 09:00:00 11 3 Sur 8 Sudeste 0 -- -- 92
2020-03-19 08:00:00 7.7 7 Sur 13 Sudeste 0 -- -- 98
2020-03-19 07:00:00 7.6 10 Sudeste 12 Sudeste 0 -- -- 97
2020-03-19 06:00:00 8.1 5 Sudeste 11 Sudeste 0 -- -- 95
2020-03-19 05:00:00 8.3 5 Sudeste 12 Sudeste 0 -- -- 96
2020-03-19 04:00:00 9.2 7 Sudeste 11 Sudeste 0 -- -- 95
2020-03-19 03:00:00 10.5 2 Sudeste 4 Este 0 -- -- 91
2020-03-19 02:00:00 9.7 0 Calma 11 Sudeste 0 -- -- 93
2020-03-19 01:00:00 8.4 7 Sudeste 9 Sudeste 0 -- -- 92
2020-03-19 00:00:00 7.6 8 Sudeste 10 Sudeste 0 -- -- 93
2020-03-18 23:00:00 8.1 8 Sudeste 10 Sudeste 0 -- -- 94
2020-03-18 22:00:00 8.6 6 Sudeste 9 Sudeste 0 -- -- 95
2020-03-18 21:00:00 9.8 6 Sudeste 7 Sudeste 0 -- -- 92
2020-03-18 20:00:00 11.8 0 Calma 7 Noroeste 0 -- -- 87
2020-03-18 19:00:00 12.7 7 Noroeste 14 Noroeste 0 -- -- 85
2020-03-18 18:00:00 14.6 11 Noroeste 15 Noroeste 0 -- -- 77
2020-03-18 17:00:00 16.6 9 Noroeste 15 Noroeste 0 -- -- 68
2020-03-18 16:00:00 16.2 10 Noroeste 17 Oeste 0 -- -- 72
2020-03-18 15:00:00 16.2 10 Noroeste 15 Noroeste 0 -- -- 79
2020-03-18 14:00:00 14.9 8 Noroeste 14 Oeste 0 -- -- 81
2020-03-18 13:00:00 13.9 7 Noroeste 11 Noroeste 0 -- -- 79
2020-03-18 12:00:00 12.4 5 Noroeste 10 Noroeste 0 -- -- 84
2020-03-18 11:00:00 11.2 5 Oeste 9 Oeste 0 -- -- 90
2020-03-18 10:00:00 10.4 2 Sudeste 5 Sudeste 0 -- -- 99
2020-03-18 09:00:00 6.7 0 Calma 3 Norte 0 -- -- 100
2020-03-18 08:00:00 6.1 0 Calma 7 Sudeste 0 -- -- 100
2020-03-18 07:00:00 5.5 5 Este 9 Este 0 -- -- 99
2020-03-18 06:00:00 5.7 4 Sudeste 10 Este 0 -- -- 100
2020-03-18 05:00:00 5.7 5 Sudeste 8 Este 0 -- -- 99
2020-03-18 04:00:00 6.2 0 Calma 12 Este 0 -- -- 99
2020-03-18 03:00:00 6 9 Sudeste 11 Sudeste 0 -- -- 98
2020-03-18 02:00:00 6.1 6 Sudeste 8 Sudeste 0 -- -- 98
2020-03-18 01:00:00 6.1 6 Sudeste 10 Sudeste 0 -- -- 98
2020-03-18 00:00:00 6.5 7 Sudeste 11 Sudeste 0 -- -- 98
2020-03-17 23:00:00 6.8 7 Sudeste 10 Sudeste 0 -- -- 97
2020-03-17 22:00:00 7.6 5 Este 9 Sudeste 0 -- -- 98
2020-03-17 21:00:00 8.4 8 Este 10 Este 0 -- -- 97
2020-03-17 20:00:00 9 4 Sudeste 9 Noroeste 0 -- -- 96
2020-03-17 19:00:00 9.9 8 Noroeste 10 Noroeste 0 -- -- 93
2020-03-17 18:00:00 10.9 6 Noroeste 8 Noroeste 0 -- -- 89
2020-03-17 17:00:00 10.8 4 Noroeste 6 Noroeste 0 -- -- 86
2020-03-17 16:00:00 11 3 Oeste 7 Noroeste 0 -- -- 85
2020-03-17 15:00:00 10.4 0 Calma 6 Oeste 0 -- -- 84
2020-03-17 14:00:00 10.1 4 Noroeste 8 Noroeste 0 -- -- 86
2020-03-17 13:00:00 9.6 0 Calma 8 Noroeste 0 -- -- 88
2020-03-17 12:00:00 9 4 Noroeste 9 Noroeste 0 -- -- 91
2020-03-17 11:00:00 8.4 8 Noroeste 13 Noroeste 0 -- -- 96
2020-03-17 10:00:00 8.3 8 Noroeste 15 Noroeste 0 -- -- 95
2020-03-17 09:00:00 7.9 14 Noroeste 23 Noroeste 0 -- -- 95
2020-03-17 08:00:00 7.7 15 Noroeste 21 Noroeste 0 -- -- 96
2020-03-17 07:00:00 7.5 14 Noroeste 23 Oeste 0 -- -- 96
2020-03-17 06:00:00 7.5 15 Noroeste 23 Noroeste 0 -- -- 95
2020-03-17 05:00:00 7.5 15 Noroeste 21 Noroeste 0 -- -- 95
2020-03-17 04:00:00 7.5 14 Noroeste 24 Noroeste 0 -- -- 95
2020-03-17 03:00:00 7.4 17 Noroeste 27 Noroeste 0 -- -- 95
2020-03-17 02:00:00 7.4 19 Noroeste 28 Noroeste 0 -- -- 95
2020-03-17 01:00:00 7.3 19 Noroeste 29 Noroeste 0.2 -- -- 95
2020-03-17 00:00:00 7.1 19 Noroeste 30 Noroeste 0 -- -- 96
2020-03-16 23:00:00 7.2 20 Noroeste 33 Noroeste 0 -- -- 93
2020-03-16 22:00:00 7.3 25 Noroeste 34 Noroeste 0 -- -- 92
2020-03-16 21:00:00 7 23 Noroeste 33 Noroeste 0 -- -- 94
2020-03-16 20:00:00 7.1 26 Noroeste 36 Noroeste 0 -- -- 93
2020-03-16 19:00:00 7.1 24 Noroeste 32 Noroeste 0 -- -- 93
2020-03-16 18:00:00 7.2 23 Noroeste 31 Noroeste 0 -- -- 94
2020-03-16 17:00:00 7.2 23 Noroeste 34 Noroeste 0 -- -- 93
2020-03-16 16:00:00 6.9 20 Noroeste 30 Noroeste 0.2 -- -- 95
2020-03-16 15:00:00 6.2 18 Noroeste 25 Noroeste 0 -- -- 98
2020-03-16 14:00:00 6.1 17 Noroeste 26 Noroeste 0.2 -- -- 97
2020-03-16 13:00:00 5.9 18 Noroeste 28 Noroeste 0.2 -- -- 95
2020-03-16 12:00:00 5.4 18 Noroeste 25 Noroeste 0.2 -- -- 98
2020-03-16 11:00:00 4.8 21 Noroeste 28 Noroeste 0.6 -- -- 99
2020-03-16 10:00:00 4.6 20 Noroeste 29 Noroeste 1 -- -- 98
2020-03-16 09:00:00 4.4 17 Noroeste 27 Noroeste 1.8 -- -- 99
2020-03-16 08:00:00 4.6 11 Noroeste 15 Noroeste 1.8 -- -- 98
2020-03-16 07:00:00 4.5 11 Noroeste 18 Noroeste 3.2 -- -- 98
2020-03-16 06:00:00 4.7 13 Noroeste 22 Noroeste 3.2 -- -- 96
2020-03-16 05:00:00 4.8 11 Noroeste 22 Noroeste 2.6 -- -- 97
2020-03-16 04:00:00 4.7 20 Noroeste 31 Noroeste 2.2 -- -- 97
2020-03-16 03:00:00 5.1 21 Noroeste 35 Noroeste 0.6 -- -- 96
2020-03-16 02:00:00 5.9 19 Noroeste 28 Noroeste 1.8 -- -- 96
2020-03-16 01:00:00 6.1 17 Noroeste 40 Noroeste 5 -- -- 97
2020-03-16 00:00:00 6.6 22 Noroeste 30 Noroeste 4.8 -- -- 97
2020-03-15 23:00:00 6.9 17 Noroeste 29 Noroeste 3.6 -- -- 98
2020-03-15 22:00:00 7.8 14 Noroeste 43 Oeste 4.8 -- -- 95
2020-03-15 21:00:00 10.4 17 Sudoeste 38 Oeste 6 -- -- 93
2020-03-15 20:00:00 11.1 3 Sur 19 Sudoeste 2.8 -- -- 88
2020-03-15 19:00:00 13.1 12 Sudoeste 28 Sudeste 0 -- -- 73
2020-03-15 18:00:00 13.8 15 Sudeste 31 Sudeste 0 -- -- 68
2020-03-15 17:00:00 14.7 11 Sur 42 Sur 0 -- -- 65
2020-03-15 16:00:00 16.2 26 Sudeste 46 Sudeste 0 -- -- 59
2020-03-15 15:00:00 16.6 28 Sudeste 39 Sudeste 0 -- -- 54
2020-03-15 14:00:00 16.8 27 Sudeste 48 Sudeste 0 -- -- 55
2020-03-15 13:00:00 17.1 31 Sudeste 42 Sudeste 0 -- -- 49
2020-03-15 12:00:00 15.2 23 Sudeste 33 Sudeste 0 -- -- 56
2020-03-15 11:00:00 13.5 21 Sudeste 30 Sudeste 0 -- -- 60
2020-03-15 10:00:00 11.6 20 Sudeste 29 Sudeste 0 -- -- 63
2020-03-15 09:00:00 8.6 4 Sur 14 Sur 0 -- -- 76
2020-03-15 08:00:00 5.5 6 Sudeste 16 Sudeste 0 -- -- 81
2020-03-15 07:00:00 4.6 12 Sudeste 18 Sudeste 0 -- -- 83
2020-03-15 06:00:00 4.9 6 Sudeste 16 Sur 0 -- -- 81
2020-03-15 05:00:00 5 12 Sur 15 Sur 0 -- -- 82
2020-03-15 04:00:00 4.5 10 Sudeste 19 Sudeste 0 -- -- 84
2020-03-15 03:00:00 4.4 10 Sudeste 15 Sudeste 0 -- -- 83
2020-03-15 02:00:00 2.8 10 Sudeste 15 Este 0 -- -- 85
2020-03-15 01:00:00 2.2 9 Sudeste 14 Sudeste 0 -- -- 88
2020-03-15 00:00:00 2.2 10 Sudeste 12 Sudeste 0 -- -- 90
2020-03-14 23:00:00 3.2 7 Sudeste 9 Sudeste 0 -- -- 89
2020-03-14 22:00:00 5.3 3 Sudeste 15 Norte 0 -- -- 83
2020-03-14 21:00:00 7.8 14 Norte 18 Noroeste 0 -- -- 74
2020-03-14 20:00:00 8.1 14 Noroeste 18 Noroeste 0 -- -- 73
2020-03-14 19:00:00 9.6 14 Noroeste 26 Noroeste 0 -- -- 67
2020-03-14 18:00:00 11.7 18 Noroeste 27 Noroeste 0 -- -- 59
2020-03-14 17:00:00 12.8 21 Noroeste 34 Noroeste 0 -- -- 56
2020-03-14 16:00:00 12.7 26 Noroeste 41 Noroeste 0 -- -- 58
2020-03-14 15:00:00 12.6 25 Noroeste 39 Oeste 0 -- -- 59
2020-03-14 14:00:00 12.4 25 Noroeste 39 Oeste 0 -- -- 60
2020-03-14 13:00:00 11.7 25 Noroeste 39 Noroeste 0 -- -- 62
2020-03-14 12:00:00 10.3 26 Noroeste 36 Noroeste 0 -- -- 62
2020-03-14 11:00:00 8.2 28 Noroeste 38 Noroeste 0 -- -- 72
2020-03-14 10:00:00 6.1 25 Noroeste 33 Noroeste 0 -- -- 79
2020-03-14 09:00:00 4.8 23 Noroeste 28 Noroeste 0 -- -- 87
2020-03-14 08:00:00 3.5 23 Noroeste 30 Noroeste 0 -- -- 91
2020-03-14 07:00:00 3.5 25 Norte 39 Noroeste 0 -- -- 91
2020-03-14 06:00:00 3.7 33 Noroeste 41 Noroeste 0 -- -- 91
2020-03-14 05:00:00 3.6 26 Noroeste 36 Noroeste 0 -- -- 92
2020-03-14 04:00:00 3.5 19 Noroeste 25 Noroeste 0 -- -- 93
2020-03-14 03:00:00 3.9 21 Noroeste 29 Noroeste 0 -- -- 93
2020-03-14 02:00:00 3.6 17 Noroeste 26 Noroeste 0 -- -- 94
2020-03-14 01:00:00 4 21 Noroeste 26 Noroeste 0 -- -- 93
2020-03-14 00:00:00 4.1 15 Noroeste 24 Noroeste 0 -- -- 93
2020-03-13 23:00:00 4.5 19 Noroeste 25 Noroeste 0 -- -- 93
2020-03-13 22:00:00 4.8 16 Noroeste 22 Noroeste 0 -- -- 92
2020-03-13 21:00:00 5.4 17 Noroeste 27 Noroeste 0 -- -- 90
2020-03-13 20:00:00 6.6 15 Noroeste 28 Noroeste 0 -- -- 86
2020-03-13 19:00:00 7.2 18 Noroeste 30 Noroeste 0 -- -- 83
2020-03-13 18:00:00 7.6 23 Noroeste 34 Noroeste 0 -- -- 83
2020-03-13 17:00:00 8.3 24 Noroeste 33 Noroeste 0 -- -- 82
2020-03-13 16:00:00 9.2 22 Noroeste 35 Noroeste 0 -- -- 81
2020-03-13 15:00:00 9.4 21 Noroeste 30 Noroeste 0 -- -- 77
2020-03-13 14:00:00 9.4 22 Noroeste 28 Noroeste 0 -- -- 78
2020-03-13 13:00:00 9.3 20 Noroeste 34 Oeste 0 -- -- 81
2020-03-13 12:00:00 8.6 27 Noroeste 35 Noroeste 0 -- -- 83
2020-03-13 11:00:00 8.4 22 Noroeste 36 Noroeste 0 -- -- 85
2020-03-13 10:00:00 7.3 30 Noroeste 39 Noroeste 0 -- -- 88
2020-03-13 09:00:00 7.1 24 Noroeste 42 Noroeste 0 -- -- 88
2020-03-13 08:00:00 6.6 30 Noroeste 43 Noroeste 0 -- -- 89
2020-03-13 07:00:00 6.1 30 Noroeste 45 Noroeste 0 -- -- 89
2020-03-13 06:00:00 6.5 30 Noroeste 43 Noroeste 0 -- -- 88
2020-03-13 05:00:00 6.8 29 Noroeste 40 Noroeste 0 -- -- 89
2020-03-13 04:00:00 7.5 28 Noroeste 40 Noroeste 0 -- -- 92
2020-03-13 03:00:00 7.6 27 Noroeste 43 Noroeste 0 -- -- 94
2020-03-13 02:00:00 7.9 29 Noroeste 39 Noroeste 0 -- -- 95
2020-03-13 01:00:00 8.3 23 Noroeste 43 Noroeste 0 -- -- 95
2020-03-13 00:00:00 9 27 Noroeste 41 Noroeste 0 -- -- 95
2020-03-12 23:00:00 8.9 28 Noroeste 48 Noroeste 2 -- -- 96
2020-03-12 22:00:00 9.3 33 Noroeste 48 Oeste 0 -- -- 93
2020-03-12 21:00:00 9.9 26 Noroeste 41 Noroeste 0 -- -- 90
2020-03-12 20:00:00 10.5 28 Noroeste 41 Oeste 0 -- -- 87
2020-03-12 19:00:00 10.7 28 Noroeste 44 Noroeste 0 -- -- 87
2020-03-12 18:00:00 11.9 30 Noroeste 41 Oeste 0 -- -- 83
2020-03-12 17:00:00 12.4 32 Noroeste 46 Oeste 0 -- -- 83
2020-03-12 16:00:00 13.4 34 Noroeste 45 Oeste 0 -- -- 78
2020-03-12 15:00:00 15.7 29 Noroeste 40 Noroeste 0 -- -- 70
2020-03-12 14:00:00 15.5 28 Noroeste 36 Noroeste 0 -- -- 72
2020-03-12 13:00:00 14.7 23 Noroeste 31 Noroeste 0 -- -- 76
2020-03-12 12:00:00 14.3 21 Noroeste 28 Noroeste 0 -- -- 77
2020-03-12 11:00:00 13.3 17 Noroeste 23 Noroeste 0 -- -- 80
2020-03-12 10:00:00 10.8 13 Noroeste 22 Noroeste 0 -- -- 88
2020-03-12 09:00:00 10.6 17 Noroeste 23 Noroeste 0 -- -- 89
2020-03-12 08:00:00 8.1 6 Noroeste 11 Noroeste 0 -- -- 90
2020-03-12 07:00:00 8.6 6 Norte 8 Noroeste 0 -- -- 86
2020-03-12 06:00:00 9.1 4 Norte 7 Noroeste 0 -- -- 82
2020-03-12 05:00:00 9.2 5 Este 10 Este 0 -- -- 77
2020-03-12 04:00:00 9.6 8 Sudeste 13 Este 0 -- -- 79
2020-03-12 03:00:00 10.8 0 Calma 14 Sudeste 0 -- -- 74
2020-03-12 02:00:00 12.2 7 Este 11 Este 0 -- -- 69
2020-03-12 01:00:00 12.9 6 Sudeste 16 Sudeste 0 -- -- 67
2020-03-12 00:00:00 11.2 10 Sudeste 14 Sudeste 0 -- -- 76
2020-03-11 23:00:00 10.6 11 Sudeste 15 Sudeste 0 -- -- 77
2020-03-11 22:00:00 9.7 12 Sudeste 15 Sudeste 0 -- -- 79
2020-03-11 21:00:00 10.8 13 Sudeste 14 Sudeste 0 -- -- 76
2020-03-11 20:00:00 12.2 11 Sudeste 14 Sudeste 0 -- -- 73
2020-03-11 19:00:00 15.6 5 Sudeste 7 Este 0 -- -- 61
2020-03-11 18:00:00 19.6 6 Noroeste 10 Noroeste 0 -- -- 52
2020-03-11 17:00:00 20.4 7 Noroeste 10 Noroeste 0 -- -- 47
2020-03-11 16:00:00 20.7 8 Noroeste 17 Noroeste 0 -- -- 44
2020-03-11 15:00:00 20.5 9 Noroeste 16 Noroeste 0 -- -- 41
2020-03-11 14:00:00 19 12 Noroeste 17 Noroeste 0 -- -- 54
2020-03-11 13:00:00 17.7 10 Noroeste 15 Noroeste 0 -- -- 63
2020-03-11 12:00:00 15.2 10 Noroeste 14 Noroeste 0 -- -- 71
2020-03-11 11:00:00 12.4 8 Noroeste 11 Noroeste 0 -- -- 77
2020-03-11 10:00:00 10.6 8 Noroeste 11 Noroeste 0 -- -- 78
2020-03-11 09:00:00 9.7 0 Calma 5 Sudeste 0 -- -- 80
2020-03-11 08:00:00 5.2 3 Este 8 Sudeste 0 -- -- 91
2020-03-11 07:00:00 4.6 7 Sudeste 8 Sudeste 0 -- -- 94
2020-03-11 06:00:00 4.9 5 Sudeste 8 Sudeste 0 -- -- 90
2020-03-11 05:00:00 5.2 8 Sudeste 10 Sudeste 0 -- -- 91
2020-03-11 04:00:00 5.5 5 Sudeste 10 Sudeste 0 -- -- 88
2020-03-11 03:00:00 5.8 4 Este 9 Sudeste 0 -- -- 87
2020-03-11 02:00:00 5.8 2 Este 9 Este 0 -- -- 84
2020-03-11 01:00:00 8.2 2 Sudeste 8 Este 0 -- -- 73
2020-03-11 00:00:00 7.4 6 Este 10 Sudeste 0 -- -- 67
2020-03-10 23:00:00 6.5 6 Este 11 Sudeste 0 -- -- 72
2020-03-10 22:00:00 6.8 5 Sudeste 9 Sudeste 0 -- -- 72
2020-03-10 21:00:00 10.7 3 Oeste 20 Noroeste 0 -- -- 50
2020-03-10 20:00:00 12.5 15 Noroeste 23 Noroeste 0 -- -- 44
2020-03-10 19:00:00 14.7 18 Norte 25 Noroeste 0 -- -- 35
2020-03-10 18:00:00 15.8 22 Noroeste 30 Norte 0 -- -- 34
2020-03-10 17:00:00 17.4 20 Noroeste 33 Noroeste 0 -- -- 29
2020-03-10 16:00:00 17.1 12 Noroeste 26 Noroeste 0 -- -- 43
2020-03-10 15:00:00 17 17 Oeste 26 Noroeste 0 -- -- 42
2020-03-10 14:00:00 16.4 12 Noroeste 18 Noroeste 0 -- -- 46
2020-03-10 13:00:00 15.1 13 Noroeste 19 Noroeste 0 -- -- 46
2020-03-10 12:00:00 13 12 Noroeste 15 Noroeste 0 -- -- 55
2020-03-10 11:00:00 10.8 12 Noroeste 21 Noroeste 0 -- -- 77
2020-03-10 10:00:00 8.2 16 Noroeste 20 Noroeste 0 -- -- 84
2020-03-10 09:00:00 8.1 11 Noroeste 17 Noroeste 0 -- -- 83
2020-03-10 08:00:00 7.5 12 Noroeste 16 Noroeste 0 -- -- 81
2020-03-10 07:00:00 6.5 12 Noroeste 22 Noroeste 0 -- -- 87
2020-03-10 06:00:00 5.9 18 Noroeste 26 Noroeste 0 -- -- 89
2020-03-10 05:00:00 5.5 19 Noroeste 26 Noroeste 0 -- -- 89
2020-03-10 04:00:00 5.4 21 Noroeste 25 Noroeste 0 -- -- 90
2020-03-10 03:00:00 5.2 19 Noroeste 24 Noroeste 0 -- -- 91
2020-03-10 02:00:00 4.9 18 Noroeste 25 Noroeste 0 -- -- 92
2020-03-10 01:00:00 5.3 17 Noroeste 24 Noroeste 0 -- -- 91
2020-03-10 00:00:00 5.5 18 Noroeste 36 Noroeste 0 -- -- 93
2020-03-09 23:00:00 6 27 Noroeste 39 Noroeste 0 -- -- 93
2020-03-09 22:00:00 5.9 27 Noroeste 41 Noroeste 0 -- -- 93
2020-03-09 21:00:00 6 29 Noroeste 44 Noroeste 0 -- -- 90
2020-03-09 20:00:00 5.9 27 Noroeste 44 Noroeste 0 -- -- 87
2020-03-09 19:00:00 6.3 34 Noroeste 58 Norte 0 -- -- 81
2020-03-09 18:00:00 6.3 28 Noroeste 51 Noroeste 0 -- -- 87
2020-03-09 17:00:00 6.5 36 Noroeste 58 Noroeste 0.4 -- -- 91
2020-03-09 16:00:00 7.6 40 Noroeste 57 Noroeste 0.2 -- -- 80
2020-03-09 15:00:00 7.9 37 Noroeste 63 Noroeste 0 -- -- 85
2020-03-09 14:00:00 8 37 Noroeste 56 Noroeste 1.2 -- -- 82
2020-03-09 13:00:00 8.1 35 Noroeste 60 Noroeste 0 -- -- 80
2020-03-09 12:00:00 8.7 42 Noroeste 62 Noroeste 0 -- -- 69
2020-03-09 11:00:00 7.4 41 Noroeste 58 Noroeste 0.2 -- -- 81
2020-03-09 10:00:00 5.7 31 Noroeste 46 Noroeste 0.4 -- -- 93
2020-03-09 09:00:00 6.1 19 Noroeste 41 Noroeste 0 -- -- 88
2020-03-09 08:00:00 6.2 24 Noroeste 38 Noroeste 0 -- -- 85
2020-03-09 07:00:00 5.7 12 Noroeste 41 Noroeste 0 -- -- 87
2020-03-09 06:00:00 6.3 27 Noroeste 47 Oeste 0 -- -- 80
2020-03-09 05:00:00 6 27 Noroeste 51 Noroeste 0 -- -- 84
2020-03-09 04:00:00 6.5 28 Noroeste 54 Noroeste 0 -- -- 83
2020-03-09 03:00:00 6.9 17 Noroeste 37 Norte 0 -- -- 82
2020-03-09 02:00:00 7.3 25 Noroeste 50 Noroeste 0 -- -- 83
2020-03-09 01:00:00 7.5 33 Noroeste 48 Noroeste 0 -- -- 81
2020-03-09 00:00:00 8 22 Noroeste 41 Noroeste 0 -- -- 80
2020-03-08 23:00:00 7.8 15 Noroeste 24 Noroeste 0.2 -- -- 85
2020-03-08 22:00:00 8.8 13 Noroeste 24 Noroeste 0 -- -- 79
2020-03-08 21:00:00 9 5 Noroeste 33 Noroeste 0 -- -- 80
2020-03-08 20:00:00 10.3 21 Noroeste 33 Noroeste 0 -- -- 81
2020-03-08 19:00:00 11.6 15 Norte 30 Norte 0 -- -- 73
2020-03-08 18:00:00 11.9 8 Noroeste 14 Noroeste 0 -- -- 71
2020-03-08 17:00:00 12.8 10 Noroeste 15 Noroeste 0 -- -- 67
2020-03-08 16:00:00 12.3 8 Noroeste 14 Noroeste 0 -- -- 67
2020-03-08 15:00:00 11.8 9 Noroeste 23 Noroeste 0 -- -- 73
2020-03-08 14:00:00 11 13 Noroeste 17 Noroeste 0 -- -- 78
2020-03-08 13:00:00 10.7 3 Sudoeste 11 Oeste 0 -- -- 81
2020-03-08 12:00:00 6 5 Nordeste 24 Noroeste 0 -- -- 96
2020-03-08 11:00:00 4.7 14 Noroeste 24 Noroeste 0 -- -- 95
2020-03-08 10:00:00 6.7 0 Calma 6 Sudeste 0 -- -- 87
2020-03-08 09:00:00 2.1 5 Sudeste 9 Sudeste 0 -- -- 99
2020-03-08 08:00:00 -0.2 2 Sudeste 4 Sudeste 0 -- -- 99
2020-03-08 07:00:00 0 0 Calma 8 Sudeste 0 -- -- 99
2020-03-08 06:00:00 0.9 8 Sudeste 12 Sudeste 0 -- -- 99
2020-03-08 05:00:00 0.8 9 Sudeste 12 Sudeste 0 -- -- 99
2020-03-08 04:00:00 0.4 9 Sudeste 11 Sudeste 0 -- -- 98
2020-03-08 03:00:00 1.2 8 Sudeste 10 Sudeste 0 -- -- 99
2020-03-08 02:00:00 1.4 8 Sudeste 9 Este 0 -- -- 98
2020-03-08 01:00:00 2 6 Sudeste 9 Sudeste 0 -- -- 97
2020-03-08 00:00:00 3.5 4 Sudeste 8 Sudeste 0 -- -- 97
2020-03-07 23:00:00 4.5 0 Calma 8 Este 0 -- -- 95
2020-03-07 22:00:00 5.3 2 Nordeste 19 Norte 0 -- -- 92
2020-03-07 21:00:00 6.7 13 Norte 34 Noroeste 0 -- -- 89
2020-03-07 20:00:00 6.7 24 Noroeste 34 Noroeste 0 -- -- 91
2020-03-07 19:00:00 6.5 22 Noroeste 37 Oeste 0.2 -- -- 94
2020-03-07 18:00:00 7.1 31 Noroeste 42 Noroeste 0 -- -- 94
2020-03-07 17:00:00 8.8 27 Noroeste 45 Noroeste 0 -- -- 86
2020-03-07 16:00:00 8.2 28 Noroeste 44 Noroeste 0 -- -- 90
2020-03-07 15:00:00 8.7 26 Noroeste 42 Noroeste 0 -- -- 91
2020-03-07 14:00:00 8.5 33 Noroeste 54 Noroeste 0 -- -- 88
2020-03-07 13:00:00 7.6 26 Noroeste 42 Noroeste 0.2 -- -- 92
2020-03-07 12:00:00 7.5 27 Noroeste 50 Noroeste 0 -- -- 91
2020-03-07 11:00:00 7.3 37 Noroeste 56 Noroeste 0.2 -- -- 86
2020-03-07 10:00:00 6.8 30 Noroeste 55 Noroeste 0 -- -- 89
2020-03-07 09:00:00 6.3 35 Noroeste 50 Noroeste 0 -- -- 85
2020-03-07 08:00:00 5.3 37 Noroeste 57 Noroeste 0 -- -- 88
2020-03-07 07:00:00 5 37 Noroeste 55 Noroeste 0 -- -- 86
2020-03-07 06:00:00 4.1 28 Noroeste 40 Noroeste 0.2 -- -- 92
2020-03-07 05:00:00 3.1 26 Noroeste 37 Noroeste 0.6 -- -- 98
2020-03-07 04:00:00 3.2 23 Noroeste 36 Noroeste 0.2 -- -- 95
2020-03-07 03:00:00 3.1 26 Noroeste 32 Noroeste 1 -- -- 95
2020-03-07 02:00:00 3.2 19 Noroeste 32 Noroeste 0.6 -- -- 95
2020-03-07 01:00:00 3.4 24 Noroeste 40 Noroeste 0 -- -- 91
2020-03-07 00:00:00 2.5 24 Noroeste 57 Noroeste 0.2 -- -- 97
2020-03-06 23:00:00 2.8 34 Noroeste 54 Oeste 1.4 -- -- 93
2020-03-06 22:00:00 3 22 Noroeste 57 Noroeste 0.8 -- -- 92
2020-03-06 21:00:00 3 32 Noroeste 60 Noroeste 1 -- -- 94
2020-03-06 20:00:00 2.6 33 Noroeste 60 Noroeste 0.8 -- -- 93
2020-03-06 19:00:00 3.1 40 Noroeste 62 Noroeste 1.2 -- -- 94
2020-03-06 18:00:00 3.5 39 Noroeste 66 Noroeste 1.2 -- -- 91
2020-03-06 17:00:00 2.3 25 Noroeste 64 Noroeste 2.2 -- -- 98
2020-03-06 16:00:00 2 39 Noroeste 82 Oeste 2.4 -- -- 98
2020-03-06 15:00:00 3 30 Noroeste 60 Oeste 1.8 -- -- 93
2020-03-06 14:00:00 3.7 27 Noroeste 77 Noroeste 0 -- -- 87
2020-03-06 13:00:00 3.7 45 Noroeste 64 Noroeste 4 -- -- 93
2020-03-06 12:00:00 0.1 27 Noroeste 59 Noroeste 1.6 -- -- 99
2020-03-06 11:00:00 3 34 Noroeste 54 Noroeste 0.2 -- -- 91
2020-03-06 10:00:00 3 23 Noroeste 46 Noroeste 1.4 -- -- 94
2020-03-06 09:00:00 3.6 28 Noroeste 44 Noroeste 0.2 -- -- 86
2020-03-06 08:00:00 3.6 21 Noroeste 36 Noroeste 0.2 -- -- 88
2020-03-06 07:00:00 4.4 13 Noroeste 54 Oeste 0 -- -- 84
2020-03-06 06:00:00 4.9 6 Noroeste 20 Oeste 0 -- -- 78
2020-03-06 05:00:00 4.6 9 Noroeste 17 Oeste 0 -- -- 79
2020-03-06 04:00:00 2.6 2 Sudeste 12 Sudeste 0 -- -- 88
2020-03-06 03:00:00 2 9 Sudeste 13 Sudeste 0 -- -- 92
2020-03-06 02:00:00 3.3 8 Norte 19 Noroeste 0 -- -- 87
2020-03-06 01:00:00 4.5 13 Noroeste 25 Noroeste 0 -- -- 84
2020-03-06 00:00:00 4.7 19 Noroeste 27 Noroeste 0 -- -- 85
2020-03-05 23:00:00 4.5 17 Noroeste 35 Noroeste 0 -- -- 88
2020-03-05 22:00:00 5.2 25 Noroeste 44 Noroeste 0 -- -- 82
2020-03-05 21:00:00 6.2 29 Noroeste 40 Noroeste 0 -- -- 78
2020-03-05 20:00:00 6.5 40 Noroeste 72 Noroeste 0 -- -- 72
2020-03-05 19:00:00 7.1 54 Noroeste 73 Noroeste 0 -- -- 73
2020-03-05 18:00:00 8 49 Noroeste 68 Noroeste 0 -- -- 75
2020-03-05 17:00:00 8.3 32 Noroeste 59 Noroeste 0 -- -- 80
2020-03-05 16:00:00 8.7 39 Noroeste 56 Noroeste 0.2 -- -- 85
2020-03-05 15:00:00 10.4 3 Noroeste 26 Oeste 0 -- -- 77
2020-03-05 14:00:00 7.7 19 Oeste 68 Noroeste 2 -- -- 83
2020-03-05 13:00:00 10.6 16 Noroeste 44 Oeste 1.4 -- -- 91
2020-03-05 12:00:00 10.1 27 Oeste 56 Oeste 2.2 -- -- 93
2020-03-05 11:00:00 11.7 12 Sur 23 Sudoeste 0.2 -- -- 85
2020-03-05 10:00:00 11.5 12 Sur 21 Sudoeste 0 -- -- 85
2020-03-05 09:00:00 9.8 14 Sur 26 Sudeste 0 -- -- 91
2020-03-05 08:00:00 10.5 18 Sudeste 27 Sudeste 0 -- -- 84
2020-03-05 07:00:00 10.5 23 Sudeste 31 Sudeste 0 -- -- 83
2020-03-05 06:00:00 10.3 23 Sudeste 32 Este 0 -- -- 86
2020-03-05 05:00:00 10.8 22 Sudeste 32 Sudeste 0 -- -- 83
2020-03-05 04:00:00 10.6 19 Sudeste 28 Sudeste 0 -- -- 88
2020-03-05 03:00:00 9.6 11 Sur 17 Sur 0 -- -- 91
2020-03-05 02:00:00 9.5 8 Sudeste 14 Sudeste 0 -- -- 88
2020-03-05 01:00:00 11.6 5 Este 15 Sudeste 0 -- -- 77
2020-03-05 00:00:00 8.6 13 Sudeste 15 Sudeste 0 -- -- 94
2020-03-04 23:00:00 9.3 8 Sudeste 17 Sur 0 -- -- 92
2020-03-04 22:00:00 10.1 4 Sudeste 9 Sudeste 0 -- -- 92
2020-03-04 21:00:00 11.3 11 Este 19 Este 0 -- -- 90
2020-03-04 20:00:00 11.7 5 Sudeste 9 Sudeste 0 -- -- 90
2020-03-04 19:00:00 12.1 7 Sudeste 10 Sudeste 0 -- -- 89
2020-03-04 18:00:00 13.7 0 Calma 10 Nordeste 0 -- -- 77
2020-03-04 17:00:00 14.1 5 Nordeste 12 Noroeste 0 -- -- 78
2020-03-04 16:00:00 14.5 8 Noroeste 18 Oeste 0 -- -- 77
2020-03-04 15:00:00 14 12 Noroeste 19 Oeste 0 -- -- 80
2020-03-04 14:00:00 13.9 8 Noroeste 12 Noroeste 0 -- -- 82
2020-03-04 13:00:00 14.5 3 Norte 12 Sudeste 0 -- -- 79
2020-03-04 12:00:00 14.1 4 Sudeste 9 Sur 0 -- -- 81
2020-03-04 11:00:00 10.2 4 Sur 9 Sur 0 -- -- 91
2020-03-04 10:00:00 8.2 3 Noroeste 5 Noroeste 0 -- -- 98
2020-03-04 09:00:00 6.8 2 Norte 5 Oeste 0 -- -- 99
2020-03-04 08:00:00 6.1 2 Noroeste 6 Sudeste 1.4 -- -- 99
2020-03-04 07:00:00 6 0 Calma 6 Oeste 1.4 -- -- 98
2020-03-04 06:00:00 6 3 Sudeste 9 Sudeste 1 -- -- 97
2020-03-04 05:00:00 5.8 8 Sudeste 11 Sudeste 0.8 -- -- 96
2020-03-04 04:00:00 5.5 7 Sudeste 8 Sudeste 0 -- -- 95
2020-03-04 03:00:00 5.4 3 Sudeste 7 Sur 0 -- -- 93
2020-03-04 02:00:00 6.2 0 Calma 8 Norte 0 -- -- 89
2020-03-04 01:00:00 6.4 3 Noroeste 26 Noroeste 0 -- -- 90
2020-03-04 00:00:00 6.8 14 Noroeste 17 Noroeste 0 -- -- 88
2020-03-03 23:00:00 7 18 Noroeste 38 Noroeste 0 -- -- 88
2020-03-03 22:00:00 7.1 26 Noroeste 33 Noroeste 0 -- -- 88
2020-03-03 21:00:00 7.4 15 Noroeste 37 Norte 0 -- -- 85
2020-03-03 20:00:00 8 29 Noroeste 59 Noroeste 0 -- -- 80
2020-03-03 19:00:00 8.9 46 Noroeste 77 Noroeste 0 -- -- 78
2020-03-03 18:00:00 10.2 50 Noroeste 79 Noroeste 0 -- -- 74
2020-03-03 17:00:00 11.8 62 Noroeste 110 Noroeste 0 -- -- 66
2020-03-03 16:00:00 10.4 26 Noroeste 56 Noroeste 0.2 -- -- 80
2020-03-03 15:00:00 8.3 13 Norte 29 Norte 0 -- -- 85
2020-03-03 14:00:00 8.8 7 Oeste 21 Sudeste 0 -- -- 84
2020-03-03 13:00:00 7.1 15 Sudeste 30 Sudeste 0 -- -- 91
2020-03-03 12:00:00 3.9 19 Sudeste 31 Sudeste 0 -- -- 92
2020-03-03 11:00:00 2.3 20 Sudeste 36 Sudeste 0.4 -- -- 93
2020-03-03 10:00:00 1.9 24 Sudeste 32 Sudeste 2 -- -- 95
2020-03-03 09:00:00 2.8 17 Sudeste 27 Sudeste 1 -- -- 93
2020-03-03 08:00:00 3.2 15 Sur 23 Sur 2.4 -- -- 93
2020-03-03 07:00:00 3.8 11 Sur 21 Sudoeste 0.6 -- -- 88
2020-03-03 06:00:00 3.3 4 Sudeste 10 Este 0 -- -- 86
2020-03-03 05:00:00 4.1 7 Noroeste 14 Noroeste 0 -- -- 74
2020-03-03 04:00:00 3.9 9 Norte 13 Noroeste 0 -- -- 75
2020-03-03 03:00:00 3.8 4 Norte 13 Norte 0 -- -- 77
2020-03-03 02:00:00 3.2 3 Norte 16 Noroeste 0 -- -- 83
2020-03-03 01:00:00 2.9 8 Noroeste 18 Noroeste 0 -- -- 90
2020-03-03 00:00:00 3.2 12 Noroeste 32 Noroeste 0 -- -- 90
2020-03-02 23:00:00 2.9 22 Noroeste 43 Noroeste 0.2 -- -- 92
2020-03-02 22:00:00 3.2 26 Noroeste 42 Noroeste 0 -- -- 91
2020-03-02 21:00:00 2.3 17 Noroeste 40 Noroeste 0.6 -- -- 93
2020-03-02 20:00:00 2.9 19 Noroeste 51 Oeste 0.2 -- -- 92
2020-03-02 19:00:00 2.9 36 Oeste 54 Oeste 0.4 -- -- 90
2020-03-02 18:00:00 3.3 31 Noroeste 61 Noroeste 0.2 -- -- 89
2020-03-02 17:00:00 4.5 41 Noroeste 59 Noroeste 0 -- -- 81
2020-03-02 16:00:00 4.6 33 Noroeste 49 Noroeste 0 -- -- 84
2020-03-02 15:00:00 4.7 28 Noroeste 56 Noroeste 0.2 -- -- 86
2020-03-02 14:00:00 3 40 Noroeste 73 Noroeste 0.8 -- -- 90
2020-03-02 13:00:00 5 29 Norte 60 Noroeste 0.2 -- -- 82
2020-03-02 12:00:00 5.6 47 Noroeste 69 Noroeste 0 -- -- 80
2020-03-02 11:00:00 7.3 48 Noroeste 73 Oeste 0 -- -- 69
2020-03-02 10:00:00 5.9 36 Noroeste 72 Noroeste 0 -- -- 80
2020-03-02 09:00:00 6.3 50 Noroeste 90 Noroeste 0 -- -- 78
2020-03-02 08:00:00 6.8 35 Noroeste 53 Noroeste 0.2 -- -- 83
2020-03-02 07:00:00 6.5 19 Noroeste 58 Noroeste 0.2 -- -- 91
2020-03-02 06:00:00 6.9 38 Noroeste 107 Oeste 3 -- -- 95
2020-03-02 05:00:00 11.3 20 Sudeste 51 Sudeste 0.4 -- -- 80
2020-03-02 04:00:00 11.1 34 Sudeste 54 Sudeste 0 -- -- 84
2020-03-02 03:00:00 10.5 41 Sudeste 72 Sudeste 0.4 -- -- 87
2020-03-02 02:00:00 9.4 33 Sudeste 49 Sudeste 1.4 -- -- 91
2020-03-02 01:00:00 8.7 17 Sudeste 29 Sudeste 1.4 -- -- 90
2020-03-02 00:00:00 8.6 13 Sudeste 28 Sur 1 -- -- 85